Terminal Aerodrome Forecast
Issued by NWS Raleigh/Durham, NC

Home | Current Version | Previous Version | Text Only | Print | Product List | Glossary On
Versions: 1 2 3 4 5 6 7 8 9 10 11 12 13 14 15 16 17 18 19 20 21 22 23 24 25 26 27 28 29 30 31 32 33 34 35
000
FTUS42 KRAH 301739
TAFGSO
TAF
KGSO 301739Z 3018/0118 25006G14KT P6SM FEW060 BKN250
     FM302100 22012KT P6SM SCT050
      TEMPO 3021/3024 VRB15G25KT 3SM -TSRA BKN030CB
     FM011300 24009KT P6SM FEW050=

USA.gov is the U.S. government's official web portal to all federal, state and local government web resources and services.